Thunder Bay Airport
CYQT : now visible

Airfield :











YOU CAN JOIN US ON...

 
LOGIN :

Register | Disclaimer

   EN    FR    IT 

 









Legend :    VFR   Marginal VFR   IFR   Intensive IFR   Very Intensive IFR
Visi :
Ceiling :
>= 8 km
>= 3000ft
5 to 8 km
1000 to 3000 ft
1500m to 5 km
500 to 1000 ft
800 to 1500m
200 to 500 ft
< 800m
< 200 ft
Symbols :   Thunderstorms  Fog  Heavy snow  Heavy precipitations  Wind > 20 kt






- Airport Elevation : 653 ft
- IATA code : YQT


CYQT - Thunder Bay

CURRENT METAR :
  • 262300Z 36007KT 15SM FEW019 OVC028 M02/M05 A2991 RMK SC1SC7 SLP141

EXPIRED METARs :
  • 262200Z 01004KT 340V040 20SM FEW020 OVC028 M01/M05 A2989 RMK SC1SC7 SLP136
  • 262100Z 35006KT 20SM OVC022 M01/M05 A2988 RMK SC8 SLP132

TAF TAF CYQT
Valid from the 26 at 20:00 until the 27 at 08:00 UTC


261938Z 2620/2708 28008KT P6SM OVC020
TEMPO 2620/2704 OVC025
FM270400 VRB03KT P6SM OVC015
PROB30 2704/2708 2SM -FZDZ BR OVC008 RMK NXT FCST BY 270200Z



MET'MAP, your aeronautical weather chart ! - Copyright ORBIFLY December 2007 - Disclaimer

ORBIFLY MET'MAP TEAM :

Programming & Development : Alexandra Zaïnal
Concept & original design : Baudouin d'Aumeries
Assistance for programming : Marc-Olivier Méhu
Technical & hardware support : Manuel Goepfert

Contact : metmap@orbifly.com




SOURCES & CREDITS :

   NOAA       Earth
Advisory